createdAt,value
2022-11-29T00:00:53.479Z,101265.75
2022-11-29T00:03:58.285Z,101261.56
2022-11-29T00:07:00.979Z,101274.13
2022-11-29T00:10:05.189Z,101267.00
2022-11-29T00:13:07.869Z,101262.84
2022-11-29T00:16:14.163Z,101271.00
2022-11-29T00:19:19.087Z,101267.22
2022-11-29T00:22:23.567Z,101269.09
2022-11-29T00:25:28.203Z,101266.78
2022-11-29T00:28:30.949Z,101269.72
2022-11-29T00:31:36.662Z,101277.38
2022-11-29T00:34:40.892Z,101273.50
2022-11-29T00:37:43.647Z,101265.72
2022-11-29T00:40:53.339Z,101268.84
2022-11-29T00:43:56.243Z,101270.97
2022-11-29T00:47:01.534Z,101265.75
2022-11-29T00:50:04.950Z,101270.56
2022-11-29T00:53:08.927Z,101267.00
2022-11-29T00:56:11.670Z,101268.47
2022-11-29T00:59:15.680Z,101276.38
2022-11-29T01:02:19.785Z,101267.59
2022-11-29T01:05:23.916Z,101272.00
2022-11-29T01:08:27.862Z,101264.88
2022-11-29T01:11:30.551Z,101264.72
2022-11-29T01:14:34.522Z,101270.31
2022-11-29T01:17:39.615Z,101269.94
2022-11-29T01:20:43.529Z,101272.69
2022-11-29T01:23:48.768Z,101270.16
2022-11-29T01:26:51.452Z,101270.38
2022-11-29T01:29:55.449Z,101269.97
2022-11-29T01:32:59.511Z,101270.31
2022-11-29T01:36:04.014Z,101276.41
2022-11-29T01:39:08.304Z,101270.16
2022-11-29T01:42:11.791Z,101275.41
2022-11-29T01:45:24.985Z,101274.34
2022-11-29T01:48:31.739Z,101268.31
2022-11-29T01:51:38.164Z,101271.84
2022-11-29T01:54:43.655Z,101272.06
2022-11-29T01:57:47.971Z,101267.47
2022-11-29T02:00:52.109Z,101270.34
2022-11-29T02:03:57.823Z,101263.47
2022-11-29T02:07:00.584Z,101262.63
2022-11-29T02:10:06.436Z,101264.13
2022-11-29T02:13:19.641Z,101265.16
2022-11-29T02:16:29.983Z,101273.53
2022-11-29T02:20:07.950Z,101269.75
2022-11-29T02:23:36.159Z,101272.66
2022-11-29T02:27:13.513Z,101276.28
2022-11-29T02:34:07.985Z,101277.69
2022-11-29T02:37:30.869Z,101282.28
2022-11-29T02:40:50.488Z,101284.59
2022-11-29T02:44:10.219Z,101278.75
2022-11-29T02:47:23.267Z,101282.72
2022-11-29T02:50:38.827Z,101289.44
2022-11-29T02:53:51.009Z,101281.47
2022-11-29T02:56:59.755Z,101280.00
2022-11-29T03:00:06.676Z,101282.06
2022-11-29T03:03:21.763Z,101279.59
2022-11-29T03:06:38.356Z,101285.66
2022-11-29T03:09:46.055Z,101283.94
2022-11-29T03:12:52.643Z,101287.09
2022-11-29T03:16:01.725Z,101296.50
2022-11-29T03:19:24.722Z,101292.53
2022-11-29T03:22:45.364Z,101295.47
2022-11-29T03:25:55.990Z,101298.59
2022-11-29T03:29:08.430Z,101303.97
2022-11-29T03:32:17.207Z,101300.47
2022-11-29T03:35:27.791Z,101305.31
2022-11-29T03:38:42.086Z,101312.16
2022-11-29T03:41:50.788Z,101310.88
2022-11-29T03:45:00.652Z,101307.97
2022-11-29T03:48:11.723Z,101309.41
2022-11-29T03:51:20.284Z,101309.22
2022-11-29T03:54:28.914Z,101309.41
2022-11-29T03:57:37.663Z,101309.19
2022-11-29T04:00:58.882Z,101311.50
2022-11-29T04:04:44.758Z,101309.41
2022-11-29T04:08:02.183Z,101314.00
2022-11-29T04:11:37.447Z,101309.41
2022-11-29T04:15:25.321Z,101306.75
2022-11-29T04:22:36.040Z,101312.75
2022-11-29T04:25:56.531Z,101314.69
2022-11-29T04:29:18.299Z,101315.31
2022-11-29T04:32:44.653Z,101315.44
2022-11-29T04:36:00.057Z,101305.44
2022-11-29T04:39:25.560Z,101320.13
2022-11-29T04:42:43.597Z,101320.75
2022-11-29T04:46:04.397Z,101326.84
2022-11-29T04:49:20.223Z,101321.31
2022-11-29T04:52:43.936Z,101330.16
2022-11-29T04:55:56.880Z,101326.16
2022-11-29T04:59:06.773Z,101323.84
2022-11-29T05:02:18.534Z,101332.88
2022-11-29T05:05:32.549Z,101328.22
2022-11-29T05:08:48.556Z,101331.88
2022-11-29T05:12:00.599Z,101323.09
2022-11-29T05:15:34.001Z,101329.78
2022-11-29T05:18:58.493Z,101339.19
2022-11-29T05:22:15.482Z,101339.78
2022-11-29T05:25:33.388Z,101350.47
2022-11-29T05:28:51.015Z,101348.81
2022-11-29T05:32:06.828Z,101354.81
2022-11-29T05:35:33.675Z,101360.09
2022-11-29T05:38:52.277Z,101361.13
2022-11-29T05:42:10.852Z,101363.59
2022-11-29T05:48:50.140Z,101366.75
2022-11-29T05:52:06.194Z,101373.00
2022-11-29T05:55:20.747Z,101373.16
2022-11-29T05:58:30.780Z,101377.75
2022-11-29T06:01:42.925Z,101383.88
2022-11-29T06:05:03.573Z,101378.19
2022-11-29T06:08:15.630Z,101388.22
2022-11-29T06:11:24.299Z,101387.56
2022-11-29T06:14:46.571Z,101398.94
2022-11-29T06:18:12.211Z,101394.91
2022-11-29T06:21:27.737Z,101394.69
2022-11-29T06:24:44.634Z,101406.03
2022-11-29T06:27:59.786Z,101409.13
2022-11-29T06:31:12.336Z,101405.84
2022-11-29T06:34:30.529Z,101412.25
2022-11-29T06:37:39.725Z,101423.53
2022-11-29T06:40:44.763Z,101419.97
2022-11-29T06:43:48.315Z,101422.72
2022-11-29T06:47:02.182Z,101423.09
2022-11-29T06:50:23.138Z,101434.47
2022-11-29T06:53:34.829Z,101432.53
2022-11-29T06:56:46.276Z,101438.22
2022-11-29T07:00:02.263Z,101438.72
2022-11-29T07:03:23.109Z,101446.72
2022-11-29T07:06:27.936Z,101445.22
2022-11-29T07:09:35.598Z,101450.00
2022-11-29T07:12:41.695Z,101441.31
2022-11-29T07:15:54.483Z,101440.22
2022-11-29T07:19:11.482Z,101445.00
2022-11-29T07:22:31.287Z,101448.41
2022-11-29T07:25:42.625Z,101457.19
2022-11-29T07:29:01.926Z,101450.72
2022-11-29T07:32:13.138Z,101454.66
2022-11-29T07:35:20.355Z,101454.75
2022-11-29T07:38:32.755Z,101459.97
2022-11-29T07:41:45.746Z,101465.28
2022-11-29T07:45:00.508Z,101464.44
2022-11-29T07:48:03.348Z,101461.78
2022-11-29T07:51:06.291Z,101479.34
2022-11-29T07:54:10.766Z,101473.44
2022-11-29T07:57:13.468Z,101479.50
2022-11-29T08:00:21.569Z,101480.19
2022-11-29T08:03:24.326Z,101486.19
2022-11-29T08:06:28.644Z,101482.09
2022-11-29T08:09:31.347Z,101484.16
2022-11-29T08:12:35.357Z,101488.75
2022-11-29T08:15:45.697Z,101490.66
2022-11-29T08:18:49.675Z,101487.78
2022-11-29T08:21:53.687Z,101491.75
2022-11-29T08:24:56.426Z,101494.88
2022-11-29T08:28:01.029Z,101494.69
2022-11-29T08:31:06.671Z,101508.34
2022-11-29T08:34:10.604Z,101503.75
2022-11-29T08:37:14.566Z,101508.63
2022-11-29T08:40:17.949Z,101497.38
2022-11-29T08:43:20.672Z,101493.06
2022-11-29T08:46:44.794Z,101497.88
2022-11-29T08:50:03.686Z,101503.78
2022-11-29T08:53:30.505Z,101511.97
2022-11-29T08:57:16.569Z,101511.00
2022-11-29T08:59:56.004Z,101508.97
2022-11-29T09:03:21.404Z,101510.28
2022-11-29T09:06:24.130Z,101501.91
2022-11-29T09:09:26.888Z,101505.97
2022-11-29T09:12:29.598Z,101509.94
2022-11-29T09:15:32.353Z,101511.63
2022-11-29T09:18:38.148Z,101522.13
2022-11-29T09:21:42.226Z,101525.66
2022-11-29T09:24:46.548Z,101528.63
2022-11-29T09:27:50.760Z,101526.34
2022-11-29T09:30:53.506Z,101528.44
2022-11-29T09:33:57.994Z,101531.78
2022-11-29T09:37:00.719Z,101530.78
2022-11-29T09:40:04.890Z,101533.47
2022-11-29T09:43:19.408Z,101532.88
2022-11-29T09:46:35.153Z,101520.94
2022-11-29T09:49:56.669Z,101525.56
2022-11-29T09:53:18.527Z,101521.16
2022-11-29T09:56:30.740Z,101517.19
2022-11-29T10:03:05.729Z,101527.88
2022-11-29T10:06:19.935Z,101521.81
2022-11-29T10:09:33.565Z,101526.81
2022-11-29T10:12:40.971Z,101530.81
2022-11-29T10:15:48.028Z,101533.34
2022-11-29T10:18:55.703Z,101534.16
2022-11-29T10:22:04.867Z,101536.06
2022-11-29T10:25:12.077Z,101538.16
2022-11-29T10:28:18.104Z,101538.78
2022-11-29T10:31:25.024Z,101542.34
2022-11-29T10:34:32.698Z,101540.22
2022-11-29T10:37:36.814Z,101547.56
2022-11-29T10:40:43.089Z,101546.94
2022-11-29T10:43:47.337Z,101549.03
2022-11-29T10:46:50.193Z,101547.38
2022-11-29T10:49:54.292Z,101545.72
2022-11-29T10:53:04.596Z,101541.94
2022-11-29T10:56:11.029Z,101541.91
2022-11-29T10:59:22.093Z,101540.66
2022-11-29T11:02:26.675Z,101537.75
2022-11-29T11:05:29.477Z,101544.44
2022-11-29T11:08:36.157Z,101541.47
2022-11-29T11:11:41.133Z,101547.13
2022-11-29T11:14:46.995Z,101540.47
2022-11-29T11:17:58.733Z,101544.84
2022-11-29T11:21:03.834Z,101550.50
2022-11-29T11:24:24.486Z,101542.53
2022-11-29T11:27:34.168Z,101540.88
2022-11-29T11:30:38.202Z,101545.50
2022-11-29T11:33:42.496Z,101550.94
2022-11-29T11:36:46.414Z,101550.72
2022-11-29T11:39:52.731Z,101549.47
2022-11-29T11:42:59.954Z,101565.00
2022-11-29T11:46:03.047Z,101566.88
2022-11-29T11:49:14.409Z,101564.38
2022-11-29T11:52:23.219Z,101562.25
2022-11-29T11:55:33.907Z,101565.78
2022-11-29T11:58:41.388Z,101563.31
2022-11-29T12:01:45.830Z,101561.41
2022-11-29T12:04:49.569Z,101557.66
2022-11-29T12:08:07.935Z,101550.09
2022-11-29T12:11:16.908Z,101554.75
2022-11-29T12:14:27.708Z,101562.91
2022-11-29T12:17:36.458Z,101562.28
2022-11-29T12:20:44.646Z,101565.19
2022-11-29T12:23:53.426Z,101567.72
2022-11-29T12:27:02.783Z,101574.63
2022-11-29T12:30:13.630Z,101579.47
2022-11-29T12:33:29.611Z,101575.47
2022-11-29T12:36:43.393Z,101584.47
2022-11-29T12:40:05.839Z,101589.31
2022-11-29T12:43:25.266Z,101587.00
2022-11-29T12:46:31.352Z,101589.72
2022-11-29T12:49:45.523Z,101590.78
2022-11-29T12:52:57.353Z,101593.91
2022-11-29T12:56:10.978Z,101598.75
2022-11-29T12:59:28.939Z,101594.13
2022-11-29T13:02:55.349Z,101607.78
2022-11-29T13:06:08.282Z,101603.94
2022-11-29T13:09:28.368Z,101606.84
2022-11-29T13:16:08.699Z,101612.09
2022-11-29T13:19:19.552Z,101618.00
2022-11-29T13:22:40.222Z,101616.28
2022-11-29T13:25:46.437Z,101620.00
2022-11-29T13:28:51.460Z,101621.34
2022-11-29T13:31:55.769Z,101626.38
2022-11-29T13:35:03.432Z,101626.75
2022-11-29T13:38:15.836Z,101625.91
2022-11-29T13:41:28.518Z,101616.06
2022-11-29T13:44:39.361Z,101625.72
2022-11-29T13:47:52.694Z,101627.81
2022-11-29T13:50:58.784Z,101628.19
2022-11-29T13:54:05.075Z,101629.28
2022-11-29T13:57:10.106Z,101622.97
2022-11-29T14:00:30.252Z,101629.44
2022-11-29T14:03:38.400Z,101641.38
2022-11-29T14:06:42.134Z,101624.63
2022-11-29T14:09:51.218Z,101629.63
2022-11-29T14:12:59.865Z,101635.09
2022-11-29T14:16:06.881Z,101630.06
2022-11-29T14:19:30.120Z,101646.25
2022-11-29T14:22:36.909Z,101636.81
2022-11-29T14:25:51.820Z,101647.81
2022-11-29T14:28:55.343Z,101651.69
2022-11-29T14:31:59.339Z,101653.94
2022-11-29T14:35:16.206Z,101649.75
2022-11-29T14:38:30.963Z,101650.53
2022-11-29T14:41:50.736Z,101654.16
2022-11-29T14:44:58.275Z,101652.84
2022-11-29T14:48:02.882Z,101649.91
2022-11-29T14:51:12.328Z,101653.69
2022-11-29T14:54:20.721Z,101660.81
2022-11-29T14:57:54.091Z,101663.84
2022-11-29T15:01:09.538Z,101659.75
2022-11-29T15:04:15.632Z,101666.91
2022-11-29T15:07:25.735Z,101669.66
2022-11-29T15:10:32.670Z,101677.16
2022-11-29T15:13:37.469Z,101671.91
2022-11-29T15:17:03.111Z,101680.75
2022-11-29T15:20:25.655Z,101679.66
2022-11-29T15:23:30.441Z,101686.50
2022-11-29T15:26:34.636Z,101683.38
2022-11-29T15:29:37.669Z,101681.16
2022-11-29T15:32:42.089Z,101688.44
2022-11-29T15:35:51.846Z,101694.03
2022-11-29T15:38:59.222Z,101696.97
2022-11-29T15:42:09.592Z,101694.78
2022-11-29T15:45:30.333Z,101700.59
2022-11-29T15:48:33.923Z,101697.88
2022-11-29T15:51:40.913Z,101705.13
2022-11-29T15:54:49.348Z,101703.84
2022-11-29T15:57:57.152Z,101711.19
2022-11-29T16:01:01.945Z,101717.00
2022-11-29T16:04:05.209Z,101722.28
2022-11-29T16:07:08.313Z,101713.84
2022-11-29T16:10:15.901Z,101721.88
2022-11-29T16:13:34.401Z,101720.13
2022-11-29T16:16:37.914Z,101726.25
2022-11-29T16:19:42.987Z,101731.44
2022-11-29T16:22:45.955Z,101741.00
2022-11-29T16:25:56.511Z,101735.34
2022-11-29T16:28:59.221Z,101731.63
2022-11-29T16:32:15.338Z,101737.44
2022-11-29T16:35:25.400Z,101741.31
2022-11-29T16:38:29.462Z,101742.34
2022-11-29T16:41:35.776Z,101752.25
2022-11-29T16:45:03.685Z,101747.47
2022-11-29T16:48:29.279Z,101748.81
2022-11-29T16:51:40.758Z,101755.50
2022-11-29T16:54:43.644Z,101747.63
2022-11-29T16:57:50.092Z,101757.41
2022-11-29T17:00:52.831Z,101751.13
2022-11-29T17:03:57.899Z,101748.13
2022-11-29T17:07:01.941Z,101745.22
2022-11-29T17:10:06.329Z,101752.72
2022-11-29T17:13:12.213Z,101757.56
2022-11-29T17:16:16.784Z,101758.50
2022-11-29T17:19:25.495Z,101762.69
2022-11-29T17:22:28.265Z,101758.63
2022-11-29T17:25:30.976Z,101756.13
2022-11-29T17:28:35.063Z,101762.50
2022-11-29T17:31:38.068Z,101760.88
2022-11-29T17:34:40.828Z,101769.41
2022-11-29T17:37:43.540Z,101765.63
2022-11-29T17:40:47.509Z,101763.31
2022-11-29T17:43:52.850Z,101767.09
2022-11-29T17:50:17.533Z,101767.63
2022-11-29T17:53:21.486Z,101775.22
2022-11-29T17:56:25.818Z,101780.66
2022-11-29T17:59:31.227Z,101777.84
2022-11-29T18:02:34.014Z,101778.72
2022-11-29T18:05:38.110Z,101782.91
2022-11-29T18:08:42.152Z,101784.88
2022-11-29T18:11:49.275Z,101788.47
2022-11-29T18:14:55.071Z,101789.28
2022-11-29T18:17:57.778Z,101790.75
2022-11-29T18:21:01.197Z,101798.47
2022-11-29T18:24:06.986Z,101795.78
2022-11-29T18:27:10.911Z,101799.13
2022-11-29T18:30:16.916Z,101794.44
2022-11-29T18:33:20.349Z,101798.50
2022-11-29T18:36:25.338Z,101800.03
2022-11-29T18:42:51.249Z,101798.00
2022-11-29T18:45:56.637Z,101805.09
2022-11-29T18:49:01.085Z,101807.50
2022-11-29T18:52:05.182Z,101804.09
2022-11-29T18:55:09.919Z,101802.22
2022-11-29T18:58:12.625Z,101813.06
2022-11-29T19:04:39.615Z,101805.94
2022-11-29T19:07:43.692Z,101802.53
2022-11-29T19:10:46.574Z,101808.69
2022-11-29T19:13:57.401Z,101810.34
2022-11-29T19:17:01.447Z,101816.63
2022-11-29T19:20:05.652Z,101805.53
2022-11-29T19:23:08.361Z,101810.44
2022-11-29T19:26:14.483Z,101815.28
2022-11-29T19:29:18.717Z,101814.34
2022-11-29T19:32:22.806Z,101811.91
2022-11-29T19:35:26.783Z,101816.13
2022-11-29T19:38:29.550Z,101814.09
2022-11-29T19:41:33.876Z,101806.88
2022-11-29T19:45:08.541Z,101812.75
2022-11-29T19:48:02.043Z,101812.97
2022-11-29T19:51:06.379Z,101815.75
2022-11-29T19:54:11.712Z,101825.34
2022-11-29T19:57:15.722Z,101822.19
2022-11-29T20:00:21.159Z,101823.09
2022-11-29T20:03:25.264Z,101824.94
2022-11-29T20:06:30.327Z,101823.94
2022-11-29T20:09:33.123Z,101821.31
2022-11-29T20:12:36.928Z,101830.84
2022-11-29T20:15:39.781Z,101828.78
2022-11-29T20:18:50.335Z,101830.00
2022-11-29T20:25:15.292Z,101838.38
2022-11-29T20:28:18.047Z,101840.44
2022-11-29T20:31:23.004Z,101838.81
2022-11-29T20:34:27.626Z,101843.00
2022-11-29T20:41:15.894Z,101839.84
2022-11-29T20:44:23.214Z,101842.13
2022-11-29T20:47:27.370Z,101846.91
2022-11-29T20:50:34.030Z,101849.41
2022-11-29T20:53:41.136Z,101848.34
2022-11-29T20:56:43.880Z,101845.81
2022-11-29T20:59:48.111Z,101862.69
2022-11-29T21:02:50.926Z,101863.25
2022-11-29T21:05:57.472Z,101859.75
2022-11-29T21:09:01.537Z,101865.22
2022-11-29T21:12:04.818Z,101861.94
2022-11-29T21:15:11.129Z,101861.44
2022-11-29T21:18:23.622Z,101863.00
2022-11-29T21:21:35.172Z,101864.16
2022-11-29T21:24:46.670Z,101869.84
2022-11-29T21:27:51.512Z,101872.44
2022-11-29T21:30:55.001Z,101864.34
2022-11-29T21:33:59.520Z,101872.25
2022-11-29T21:37:05.316Z,101874.66
2022-11-29T21:40:11.172Z,101871.16
2022-11-29T21:43:15.103Z,101872.53
2022-11-29T21:46:17.995Z,101880.94
2022-11-29T21:49:22.046Z,101876.50
2022-11-29T21:52:27.383Z,101878.41
2022-11-29T21:55:32.222Z,101880.38
2022-11-29T21:58:36.855Z,101882.09
2022-11-29T22:01:40.999Z,101881.47
2022-11-29T22:04:43.930Z,101896.28
2022-11-29T22:07:49.430Z,101886.78
2022-11-29T22:11:01.412Z,101883.31
2022-11-29T22:14:16.806Z,101889.72
2022-11-29T22:17:20.857Z,101889.16
2022-11-29T22:20:24.934Z,101898.84
2022-11-29T22:23:30.298Z,101889.84
2022-11-29T22:26:32.973Z,101891.31
2022-11-29T22:29:36.992Z,101892.44
2022-11-29T22:32:41.027Z,101893.38
2022-11-29T22:35:45.531Z,101898.09
2022-11-29T22:38:51.272Z,101901.75
2022-11-29T22:41:55.225Z,101897.34
2022-11-29T22:44:59.436Z,101893.06
2022-11-29T22:48:02.212Z,101893.03
2022-11-29T22:54:30.905Z,101900.03
2022-11-29T22:57:33.619Z,101903.72
2022-11-29T23:00:42.425Z,101908.13
2022-11-29T23:03:48.073Z,101908.50
2022-11-29T23:06:52.121Z,101915.13
2022-11-29T23:13:19.301Z,101912.81
2022-11-29T23:16:26.046Z,101911.69
2022-11-29T23:19:30.935Z,101914.13
2022-11-29T23:22:38.591Z,101916.00
2022-11-29T23:25:50.459Z,101918.03
2022-11-29T23:28:53.867Z,101913.69
2022-11-29T23:31:57.857Z,101912.44
2022-11-29T23:35:00.578Z,101907.06
2022-11-29T23:38:04.557Z,101907.28
2022-11-29T23:41:09.439Z,101903.84
2022-11-29T23:44:13.596Z,101911.03
2022-11-29T23:47:16.275Z,101897.22
2022-11-29T23:50:20.342Z,101896.91
2022-11-29T23:53:23.055Z,101899.88
2022-11-29T23:56:36.298Z,101908.38
2022-11-29T23:59:40.256Z,101905.47
